Time;durP1;ratioP1;P1;durP2;ratioP2;P2;SDS_P1;SDS_P2;PMS_P1;PMS_P2;Temp;Humidity;BMP_temperature;BMP_pressure;BME280_temperature;BME280_humidity;BME280_pressure;Samples;Min_cycle;Max_cycle;Signal;HPM_P1;HPM_P2
2022/12/21 00:01:22;;;;;;;21.15;8.32;;;;;;;11.16;71.55;101169.38;5054012;28;20017;-39
2022/12/21 00:03:58;;;;;;;19.70;8.00;;;;;;;11.29;70.77;101175.66;5052435;28;20045;-36
2022/12/21 00:06:25;;;;;;;16.92;7.72;;;;;;;11.25;70.45;101169.53;5052609;28;20044;-41
2022/12/21 00:08:53;;;;;;;17.15;7.55;;;;;;;11.20;70.66;101170.31;5034510;28;20051;-39
2022/12/21 00:11:21;;;;;;;17.60;7.65;;;;;;;11.17;70.14;101168.53;5051989;28;20017;-39
2022/12/21 00:13:47;;;;;;;17.42;7.20;;;;;;;11.14;70.09;101167.63;5052477;28;20028;-40
2022/12/21 00:16:15;;;;;;;14.75;7.47;;;;;;;11.09;70.16;101164.06;5052802;28;20032;-39
2022/12/21 00:18:42;;;;;;;22.08;7.55;;;;;;;11.03;70.26;101163.97;5054109;28;20028;-39
2022/12/21 00:21:13;;;;;;;15.55;7.75;;;;;;;10.99;70.34;101163.03;5054054;28;20023;-39
2022/12/21 00:23:40;;;;;;;17.67;7.35;;;;;;;10.97;70.10;101160.41;5054602;28;20031;-38
2022/12/21 00:26:06;;;;;;;15.80;7.90;;;;;;;11.00;70.11;101164.78;5053068;28;20025;-41
2022/12/21 00:28:32;;;;;;;16.20;7.47;;;;;;;10.96;70.14;101155.16;5053720;28;20017;-39
2022/12/21 00:31:10;;;;;;;16.40;7.07;;;;;;;11.05;70.48;101154.41;5053880;28;20025;-39
2022/12/21 00:33:37;;;;;;;18.05;7.82;;;;;;;11.10;70.71;101145.78;5052876;28;20110;-39
2022/12/21 00:36:04;;;;;;;19.95;8.07;;;;;;;11.12;71.03;101144.09;5051262;28;20041;-40
2022/12/21 00:38:30;;;;;;;19.83;7.63;;;;;;;11.14;71.10;101131.97;5051923;28;20500;-41
2022/12/21 00:40:57;;;;;;;17.70;7.70;;;;;;;11.10;70.51;101142.34;5051477;28;20304;-40
2022/12/21 00:43:23;;;;;;;16.60;7.40;;;;;;;11.04;70.31;101147.47;5050544;28;20039;-43
2022/12/21 00:45:48;;;;;;;15.75;7.78;;;;;;;11.02;70.65;101151.78;5050681;28;20029;-39
2022/12/21 00:48:14;;;;;;;17.60;7.70;;;;;;;10.97;70.57;101156.91;5050373;28;20021;-39
2022/12/21 00:50:39;;;;;;;20.80;7.90;;;;;;;10.93;70.44;101149.88;5050835;28;20064;-41
2022/12/21 00:53:04;;;;;;;18.63;7.63;;;;;;;10.89;70.37;101141.13;5050097;28;20025;-40
2022/12/21 00:55:30;;;;;;;14.55;7.50;;;;;;;10.82;70.62;101136.66;5049968;28;20107;-41
2022/12/21 00:57:57;;;;;;;13.13;6.65;;;;;;;10.76;70.23;101135.69;5050047;28;20028;-38
2022/12/21 01:00:23;;;;;;;14.50;7.57;;;;;;;10.61;69.99;101143.25;5050197;28;20402;-43
2022/12/21 01:02:48;;;;;;;17.00;7.55;;;;;;;10.60;69.79;101137.16;5051394;28;20107;-40
2022/12/21 01:05:13;;;;;;;18.65;7.32;;;;;;;10.57;69.76;101137.97;5053024;28;20120;-38
2022/12/21 01:07:39;;;;;;;17.60;6.70;;;;;;;10.52;69.60;101136.16;5052558;28;20116;-41
2022/12/21 01:10:04;;;;;;;19.95;7.65;;;;;;;10.47;70.37;101130.84;5051970;28;20368;-39
2022/12/21 01:12:29;;;;;;;18.92;7.75;;;;;;;10.47;70.09;101132.59;5052551;28;20029;-39
2022/12/21 01:14:55;;;;;;;17.27;7.47;;;;;;;10.44;70.00;101135.13;5054291;28;20567;-41
2022/12/21 01:17:20;;;;;;;24.40;8.63;;;;;;;10.40;71.00;101139.41;5054123;28;20473;-39
2022/12/21 01:19:49;;;;;;;23.02;8.32;;;;;;;10.36;70.58;101142.81;5054141;28;20111;-40
2022/12/21 01:22:15;;;;;;;20.48;8.10;;;;;;;10.33;70.36;101140.16;5053349;28;20024;-39
2022/12/21 01:24:40;;;;;;;18.20;8.13;;;;;;;10.35;70.61;101135.84;5050556;28;20043;-40
2022/12/21 01:27:05;;;;;;;20.83;8.23;;;;;;;10.32;70.60;101140.09;5050133;28;20024;-40
2022/12/21 01:29:31;;;;;;;19.00;8.00;;;;;;;10.26;70.42;101146.09;5051184;28;20100;-40
2022/12/21 01:31:56;;;;;;;15.77;7.72;;;;;;;10.27;70.70;101150.44;5050438;28;20485;-38
2022/12/21 01:34:21;;;;;;;18.15;7.32;;;;;;;10.27;70.33;101152.19;5053688;28;20032;-41
2022/12/21 01:36:47;;;;;;;21.95;8.27;;;;;;;10.18;70.68;101152.91;5053956;28;20268;-40
2022/12/21 01:39:13;;;;;;;19.52;8.38;;;;;;;10.16;70.74;101160.69;5054164;28;20485;-38
2022/12/21 01:41:38;;;;;;;21.52;8.52;;;;;;;10.22;70.50;101164.25;5053669;28;20157;-40
2022/12/21 01:44:24;;;;;;;24.00;8.85;;;;;;;10.16;70.74;101168.50;5053772;28;20025;-38
2022/12/21 01:46:49;;;;;;;17.58;8.38;;;;;;;10.17;70.42;101169.38;5053289;28;20095;-39
2022/12/21 01:49:29;;;;;;;21.25;8.48;;;;;;;10.12;70.37;101171.84;5053463;28;20021;-41
2022/12/21 01:52:07;;;;;;;25.10;9.48;;;;;;;10.15;70.87;101168.41;5052836;28;20072;-37
2022/12/21 01:54:39;;;;;;;27.83;10.80;;;;;;;10.15;70.85;101169.31;5053138;28;20029;-39
2022/12/21 01:57:07;;;;;;;25.73;10.70;;;;;;;10.18;70.71;101165.94;5053264;28;20025;-38
2022/12/21 01:59:38;;;;;;;28.50;10.88;;;;;;;10.18;70.90;101165.03;5053095;28;20028;-38
2022/12/21 02:02:07;;;;;;;29.95;11.40;;;;;;;10.18;71.57;101165.94;5052984;28;20036;-40
2022/12/21 02:04:33;;;;;;;31.38;12.15;;;;;;;10.26;71.04;101163.44;5053010;28;20025;-40
2022/12/21 02:06:59;;;;;;;33.78;12.23;;;;;;;10.34;71.14;101161.88;5052900;28;20031;-40
2022/12/21 02:09:27;;;;;;;36.17;13.45;;;;;;;10.31;71.82;101156.59;5053359;28;20025;-40
2022/12/21 02:11:53;;;;;;;36.17;14.27;;;;;;;10.37;71.67;101161.94;5052785;28;20112;-40
2022/12/21 02:14:19;;;;;;;38.83;15.05;;;;;;;10.43;72.01;101159.47;5052970;28;20112;-38
2022/12/21 02:16:59;;;;;;;39.33;14.45;;;;;;;10.52;71.65;101159.59;5054278;28;20151;-41
2022/12/21 02:20:02;;;;;;;38.38;13.52;;;;;;;10.50;71.75;101156.97;5054318;28;20055;-41
2022/12/21 02:22:30;;;;;;;32.78;13.85;;;;;;;10.57;71.38;101161.44;5055862;28;20033;-38
2022/12/21 02:25:01;;;;;;;41.30;14.18;;;;;;;10.56;71.81;101158.81;5056258;28;20179;-40
2022/12/21 02:27:37;;;;;;;37.10;14.52;;;;;;;10.59;71.75;101151.06;5057557;28;20025;-39
2022/12/21 02:30:16;;;;;;;37.90;13.88;;;;;;;10.60;71.71;101147.59;5057147;28;20021;-39
2022/12/21 02:33:09;;;;;;;37.17;13.57;;;;;;;10.63;71.52;101147.63;5056758;28;20021;-38
2022/12/21 02:35:57;;;;;;;34.88;13.13;;;;;;;10.63;71.73;101151.97;5053519;28;20481;-39
2022/12/21 02:38:44;;;;;;;37.08;13.13;;;;;;;10.64;71.81;101151.13;5011826;28;20036;-39
2022/12/21 02:41:22;;;;;;;36.15;12.07;;;;;;;10.61;71.57;101148.47;5053004;28;20021;-40
2022/12/21 02:44:16;;;;;;;32.53;12.25;;;;;;;10.67;71.51;101143.38;5035596;28;20017;-39
2022/12/21 02:46:53;;;;;;;44.58;11.73;;;;;;;10.57;72.37;101153.63;5047811;28;20037;-39
2022/12/21 02:49:41;;;;;;;38.08;12.70;;;;;;;10.64;72.12;101153.72;5056449;28;20544;-39
2022/12/21 02:52:21;;;;;;;31.70;11.75;;;;;;;10.70;72.23;101152.09;5056236;28;20083;-38
2022/12/21 02:54:47;;;;;;;32.25;11.70;;;;;;;10.75;71.95;101157.41;5055666;28;20029;-39
2022/12/21 02:57:12;;;;;;;32.13;11.57;;;;;;;10.75;71.96;101162.59;5056494;28;20051;-40
2022/12/21 02:59:43;;;;;;;33.60;12.10;;;;;;;10.77;71.92;101155.69;5071491;22;20041;-38
2022/12/21 03:02:20;;;;;;;34.65;12.38;;;;;;;10.75;72.05;101149.56;5030917;28;20075;-41
2022/12/21 03:05:12;;;;;;;34.35;12.70;;;;;;;10.73;72.03;101149.56;5031442;28;20026;-44
2022/12/21 03:07:40;;;;;;;31.35;11.52;;;;;;;10.73;72.20;101149.56;5031771;28;20044;-41
2022/12/21 03:10:15;;;;;;;34.28;12.50;;;;;;;10.70;72.63;101148.63;5031957;28;20032;-40
2022/12/21 03:13:02;;;;;;;29.90;11.60;;;;;;;10.74;72.65;101146.09;5032103;28;20017;-43
2022/12/21 03:15:56;;;;;;;29.38;11.48;;;;;;;10.80;72.34;101138.38;5032743;28;20466;-41
2022/12/21 03:18:27;;;;;;;30.20;11.70;;;;;;;10.78;72.16;101127.06;5035860;28;20026;-39
2022/12/21 03:21:25;;;;;;;33.83;11.75;;;;;;;10.80;72.04;101135.75;5035168;28;20148;-43
2022/12/21 03:24:16;;;;;;;28.05;11.13;;;;;;;10.76;71.74;101138.28;5031806;28;20041;-42
2022/12/21 03:27:29;;;;;;;26.33;10.82;;;;;;;10.76;71.73;101130.47;5022108;28;20041;-41
2022/12/21 03:30:08;;;;;;;32.55;11.80;;;;;;;10.72;71.50;101118.25;4950962;28;20502;-40
2022/12/21 03:32:40;;;;;;;30.08;11.75;;;;;;;10.66;71.99;101125.97;4950518;29;20031;-42
2022/12/21 03:35:12;;;;;;;28.33;11.98;;;;;;;10.63;71.65;101125.91;5003914;28;20095;-40
2022/12/21 03:37:39;;;;;;;34.55;13.50;;;;;;;10.58;71.55;101120.63;5031832;28;20037;-44
2022/12/21 03:40:20;;;;;;;36.60;13.32;;;;;;;10.55;71.71;101123.19;5033213;28;20021;-42
2022/12/21 03:42:52;;;;;;;32.35;13.20;;;;;;;10.53;71.99;101127.47;5032594;28;20047;-41
2022/12/21 03:45:24;;;;;;;38.33;13.63;;;;;;;10.45;72.24;101121.25;5031696;28;20087;-40
2022/12/21 03:48:08;;;;;;;37.50;13.38;;;;;;;10.51;71.98;101118.75;5031134;28;20110;-40
2022/12/21 03:50:38;;;;;;;38.00;13.48;;;;;;;10.53;71.83;101117.06;5032094;28;20078;-39
2022/12/21 03:53:10;;;;;;;35.72;13.27;;;;;;;10.51;71.89;101114.41;5032223;28;20055;-43
2022/12/21 03:55:40;;;;;;;35.97;12.90;;;;;;;10.54;71.40;101113.59;5030180;28;20139;-41
2022/12/21 03:58:06;;;;;;;36.95;13.50;;;;;;;10.50;71.86;101104.81;5033356;28;20029;-40
2022/12/21 04:00:44;;;;;;;36.50;12.90;;;;;;;10.47;71.91;101112.63;5030799;28;20548;-40
2022/12/21 04:03:25;;;;;;;39.00;13.70;;;;;;;10.45;71.94;101111.69;5031431;28;20036;-40
2022/12/21 04:05:55;;;;;;;37.63;13.23;;;;;;;10.45;71.77;101116.03;5030947;28;20025;-43
2022/12/21 04:08:23;;;;;;;39.78;14.02;;;;;;;10.36;72.36;101110.66;5030236;28;20029;-41
2022/12/21 04:10:48;;;;;;;61.55;15.65;;;;;;;10.29;72.64;101117.50;5030294;28;20032;-40
2022/12/21 04:13:14;;;;;;;42.28;14.77;;;;;;;10.35;73.10;101114.13;5030332;28;20021;-44
2022/12/21 04:21:07;;;;;;;42.67;14.57;;;;;;;10.42;72.46;101101.22;5029890;28;20117;-43
2022/12/21 04:29:01;;;;;;;40.60;14.23;;;;;;;10.48;71.96;101100.47;5033402;28;20035;-42
2022/12/21 04:31:26;;;;;;;41.72;14.35;;;;;;;10.44;71.86;101104.72;5032138;28;20092;-41
2022/12/21 04:33:51;;;;;;;46.17;14.35;;;;;;;10.41;72.06;101107.28;5031176;28;20040;-43
2022/12/21 04:39:00;;;;;;;51.28;14.50;;;;;;;10.24;73.02;101106.13;5030403;28;20039;-41
2022/12/21 04:41:25;;;;;;;51.55;13.90;;;;;;;10.29;72.67;101109.69;5029389;28;20021;-41
2022/12/21 04:43:51;;;;;;;38.10;13.85;;;;;;;10.38;72.40;101107.22;5029603;28;20438;-41
2022/12/21 04:46:16;;;;;;;60.03;13.80;;;;;;;10.31;72.41;101109.69;5030173;28;20029;-40
2022/12/21 04:48:43;;;;;;;49.28;14.60;;;;;;;10.32;72.58;101120.13;5029883;28;20025;-43
2022/12/21 04:51:17;;;;;;;44.13;14.75;;;;;;;10.33;72.63;101113.22;5029433;28;20099;-42
2022/12/21 04:53:42;;;;;;;35.95;13.88;;;;;;;10.43;72.17;101118.59;5029598;28;20441;-41
2022/12/21 04:56:08;;;;;;;39.25;14.00;;;;;;;10.48;72.28;101118.72;5029652;28;20026;-44
2022/12/21 04:58:34;;;;;;;38.15;13.45;;;;;;;10.48;72.61;101123.91;5029742;28;20113;-44
2022/12/21 05:01:01;;;;;;;45.38;14.63;;;;;;;10.46;72.33;101123.88;5029227;28;20667;-42
2022/12/21 05:03:27;;;;;;;41.15;14.23;;;;;;;10.57;72.52;101124.94;5029651;28;20037;-42
2022/12/21 05:05:52;;;;;;;44.42;15.13;;;;;;;10.54;72.58;101117.09;5030007;28;20519;-42
2022/12/21 05:08:17;;;;;;;72.22;14.60;;;;;;;10.52;72.37;101112.69;5032528;28;20044;-39
2022/12/21 05:10:43;;;;;;;51.83;15.13;;;;;;;10.56;72.16;101110.16;5015244;28;20029;-42
2022/12/21 05:13:08;;;;;;;63.35;15.25;;;;;;;10.51;72.28;101085.75;5033650;28;20033;-40
2022/12/21 05:15:37;;;;;;;63.17;15.20;;;;;;;10.49;72.70;101084.81;5033584;28;20431;-41
2022/12/21 05:18:03;;;;;;;105.15;16.20;;;;;;;10.39;72.65;101095.06;5033268;28;20055;-40
2022/12/21 05:20:29;;;;;;;55.70;14.90;;;;;;;10.42;72.87;101098.63;5033333;28;20455;-40
2022/12/21 05:22:54;;;;;;;40.22;15.45;;;;;;;10.45;72.33;101100.38;5033794;28;20079;-42
2022/12/21 05:25:19;;;;;;;45.22;15.40;;;;;;;10.40;72.51;101099.44;5015564;28;20099;-41
2022/12/21 05:27:45;;;;;;;38.80;15.57;;;;;;;10.45;72.58;101098.66;5033409;28;20108;-40
2022/12/21 05:30:11;;;;;;;30.55;14.65;;;;;;;10.50;72.10;101112.66;5033212;28;20057;-40
2022/12/21 05:32:36;;;;;;;52.67;16.13;;;;;;;10.42;72.46;101109.06;5035062;28;20075;-41
2022/12/21 05:35:01;;;;;;;48.88;15.00;;;;;;;10.42;72.21;101111.66;5035336;28;20049;-42
2022/12/21 05:37:27;;;;;;;80.72;15.90;;;;;;;10.32;72.25;101116.66;5034970;28;20109;-41
2022/12/21 05:39:53;;;;;;;98.25;17.02;;;;;;;10.22;72.90;101110.41;5034614;28;20037;-41
2022/12/21 05:42:18;;;;;;;59.42;16.27;;;;;;;10.29;72.81;101111.41;5033301;28;20032;-41
2022/12/21 05:44:43;;;;;;;43.40;15.82;;;;;;;10.28;72.52;101110.53;5033303;28;20116;-41
2022/12/21 05:47:09;;;;;;;98.32;18.73;;;;;;;10.22;72.89;101106.94;5033351;28;20222;-44
2022/12/21 05:49:34;;;;;;;113.78;18.45;;;;;;;10.23;72.86;101103.47;5033846;28;20517;-42
2022/12/21 05:51:59;;;;;;;114.30;19.60;;;;;;;10.21;73.14;101103.44;5032939;28;20482;-44
2022/12/21 05:54:25;;;;;;;45.83;16.88;;;;;;;10.25;73.57;101097.41;5033865;28;20457;-40
2022/12/21 05:56:51;;;;;;;82.63;18.35;;;;;;;10.35;72.95;101096.75;5034773;28;20021;-41
2022/12/21 05:59:16;;;;;;;39.40;17.23;;;;;;;10.31;73.31;101086.22;5034967;28;20029;-42
2022/12/21 06:01:41;;;;;;;82.70;18.50;;;;;;;10.36;72.73;101082.00;5034999;28;20071;-40
2022/12/21 06:04:07;;;;;;;148.82;19.35;;;;;;;10.28;72.75;101080.97;5034590;28;20718;-40
2022/12/21 06:06:32;;;;;;;63.10;18.73;;;;;;;10.44;72.78;101081.25;5032880;28;20030;-44
2022/12/21 06:08:57;;;;;;;44.80;17.58;;;;;;;10.50;72.81;101076.16;5032758;28;20025;-41
2022/12/21 06:11:24;;;;;;;57.47;18.48;;;;;;;10.50;72.70;101077.88;5032399;28;20032;-40
2022/12/21 06:13:50;;;;;;;96.90;19.02;;;;;;;10.48;72.92;101082.22;5032811;28;20080;-41
2022/12/21 06:16:22;;;;;;;44.60;18.77;;;;;;;10.56;72.72;101078.88;5032974;28;20555;-40
2022/12/21 06:18:48;;;;;;;88.72;19.30;;;;;;;10.46;73.02;101076.09;5033393;28;20508;-45
2022/12/21 06:21:15;;;;;;;68.43;19.85;;;;;;;10.54;72.58;101092.75;5035260;28;20025;-41
2022/12/21 06:23:42;;;;;;;74.63;19.70;;;;;;;10.60;72.76;101082.41;5035433;28;20561;-40
2022/12/21 06:26:11;;;;;;;62.97;19.58;;;;;;;10.49;73.01;101082.22;5034165;28;20041;-42
2022/12/21 06:28:36;;;;;;;76.00;20.02;;;;;;;10.49;72.81;101083.97;5032739;28;20175;-41
2022/12/21 06:31:04;;;;;;;75.78;20.63;;;;;;;10.45;72.74;101074.31;5031940;28;20138;-44
2022/12/21 06:33:30;;;;;;;63.63;20.45;;;;;;;10.55;72.92;101084.06;5032671;28;20466;-41
2022/12/21 06:35:58;;;;;;;65.85;19.50;;;;;;;10.56;72.76;101080.59;5014692;28;20017;-41
2022/12/21 06:38:24;;;;;;;55.03;19.92;;;;;;;10.66;72.53;101079.03;5032462;28;20025;-44
2022/12/21 06:40:57;;;;;;;67.88;19.65;;;;;;;10.70;72.63;101096.47;5033881;28;20041;-42
2022/12/21 06:43:24;;;;;;;59.72;19.77;;;;;;;10.39;73.10;101098.56;5033379;28;20052;-39
2022/12/21 06:45:58;;;;;;;70.03;20.48;;;;;;;10.14;74.08;101098.94;5033256;28;20111;-38
2022/12/21 06:48:24;;;;;;;70.43;20.73;;;;;;;10.38;73.37;101108.94;5034993;28;20163;-44
2022/12/21 06:51:01;;;;;;;75.28;20.85;;;;;;;10.30;73.73;101107.94;5032374;28;20103;-39
2022/12/21 06:53:30;;;;;;;94.15;21.65;;;;;;;10.06;74.28;101110.94;5032778;28;20385;-40
2022/12/21 06:56:19;;;;;;;57.30;20.27;;;;;;;10.34;73.85;101120.19;5032645;28;20104;-41
2022/12/21 06:58:46;;;;;;;53.88;20.17;;;;;;;10.40;73.18;101113.34;5032053;28;20029;-41
2022/12/21 07:01:17;;;;;;;53.25;19.70;;;;;;;10.53;72.75;101112.72;5031365;28;20067;-41
2022/12/21 07:03:43;;;;;;;46.47;18.60;;;;;;;10.56;72.78;101120.56;5031874;28;20432;-41
2022/12/21 07:06:09;;;;;;;54.80;20.10;;;;;;;10.48;73.07;101119.59;5032161;28;20021;-41
2022/12/21 07:08:35;;;;;;;54.33;20.17;;;;;;;10.58;73.01;101125.81;5032070;28;20397;-41
2022/12/21 07:11:06;;;;;;;52.00;19.92;;;;;;;10.58;73.29;101129.31;5032854;28;20052;-41
2022/12/21 07:13:34;;;;;;;51.20;19.00;;;;;;;10.50;73.06;101130.91;5034401;28;20029;-42
2022/12/21 07:16:00;;;;;;;50.55;19.95;;;;;;;10.61;72.63;101133.72;5035324;28;20474;-44
2022/12/21 07:18:26;;;;;;;47.00;20.05;;;;;;;10.57;72.77;101137.09;5033026;28;20025;-42
2022/12/21 07:20:59;;;;;;;50.33;19.48;;;;;;;10.59;72.58;101124.97;5031733;28;20382;-39
2022/12/21 07:23:26;;;;;;;47.13;19.15;;;;;;;10.52;72.35;101121.38;5032809;28;20029;-41
2022/12/21 07:25:52;;;;;;;49.78;18.55;;;;;;;10.52;72.31;101115.28;5029996;28;20434;-41
2022/12/21 07:28:18;;;;;;;44.08;18.58;;;;;;;10.43;71.95;101117.75;5035074;28;20033;-40
2022/12/21 07:30:47;;;;;;;49.08;20.02;;;;;;;10.30;72.52;101110.56;5033759;28;20025;-42
2022/12/21 07:33:16;;;;;;;46.20;18.70;;;;;;;10.31;72.24;101107.06;5033771;28;20116;-42
2022/12/21 07:35:42;;;;;;;48.75;19.33;;;;;;;10.25;71.99;101102.63;5031809;28;20130;-44
2022/12/21 07:38:08;;;;;;;44.22;19.67;;;;;;;10.11;72.68;101110.19;5033712;28;20028;-43
2022/12/21 07:40:33;;;;;;;41.20;18.63;;;;;;;10.09;72.78;101111.88;5035495;28;20029;-45
2022/12/21 07:42:58;;;;;;;44.47;20.02;;;;;;;10.14;71.80;101110.22;5035913;28;20032;-41
2022/12/21 07:45:24;;;;;;;45.78;19.23;;;;;;;10.11;71.43;101104.97;5036118;28;20036;-41
2022/12/21 07:47:49;;;;;;;37.63;17.80;;;;;;;10.12;71.88;101101.50;5035446;28;20022;-43
2022/12/21 07:50:14;;;;;;;42.45;17.77;;;;;;;10.08;71.55;101109.22;5035319;28;20033;-44
2022/12/21 07:52:40;;;;;;;51.75;19.92;;;;;;;10.01;72.75;101109.97;5036227;28;20025;-44
2022/12/21 07:55:06;;;;;;;45.80;19.08;;;;;;;10.09;72.76;101109.28;5036836;28;20057;-42
2022/12/21 07:57:31;;;;;;;43.78;19.10;;;;;;;10.20;72.40;101112.09;5036088;28;20040;-40
2022/12/21 07:59:56;;;;;;;47.03;19.48;;;;;;;10.10;72.25;101110.16;5036643;28;20022;-44
2022/12/21 08:02:21;;;;;;;40.80;18.23;;;;;;;10.10;72.28;101110.16;5036435;28;20462;-41
2022/12/21 08:04:47;;;;;;;39.42;17.80;;;;;;;10.00;72.35;101106.47;5015499;28;20064;-44
2022/12/21 08:07:12;;;;;;;43.53;19.10;;;;;;;10.03;72.21;101114.34;5016408;28;20034;-43
2022/12/21 08:09:37;;;;;;;53.42;20.73;;;;;;;9.94;72.32;101108.09;5015664;28;20037;-40
2022/12/21 08:12:03;;;;;;;48.60;20.00;;;;;;;9.86;72.92;101117.47;5013850;28;20036;-42
2022/12/21 08:14:29;;;;;;;46.65;19.88;;;;;;;10.00;72.88;101114.28;5015773;28;20025;-42
2022/12/21 08:16:54;;;;;;;51.92;20.23;;;;;;;10.02;72.26;101124.75;5016046;28;20374;-40
2022/12/21 08:19:21;;;;;;;52.13;20.58;;;;;;;10.01;72.85;101126.47;5016287;28;20034;-40
2022/12/21 08:21:46;;;;;;;53.10;20.55;;;;;;;10.03;73.05;101123.91;5016062;28;20096;-41
2022/12/21 08:24:11;;;;;;;49.03;20.15;;;;;;;10.10;72.67;101128.38;5015691;28;20029;-42
2022/12/21 08:26:37;;;;;;;53.95;20.70;;;;;;;10.15;72.56;101126.75;4997668;28;20550;-43
2022/12/21 08:29:03;;;;;;;54.17;21.30;;;;;;;10.14;72.69;101120.66;4991733;28;20069;-42
2022/12/21 08:31:28;;;;;;;60.17;22.05;;;;;;;10.18;72.73;101125.09;4992036;28;20033;-40
2022/12/21 08:33:53;;;;;;;53.38;20.80;;;;;;;10.23;72.72;101126.94;4992792;28;20053;-41
2022/12/21 08:36:21;;;;;;;54.15;22.70;;;;;;;10.18;72.72;101126.84;4992206;28;20026;-41
2022/12/21 08:38:47;;;;;;;57.40;22.30;;;;;;;10.24;73.04;101132.19;4991884;28;20084;-42
2022/12/21 08:41:13;;;;;;;65.50;24.13;;;;;;;10.23;73.54;101134.75;4991243;28;20030;-43
2022/12/21 08:43:39;;;;;;;57.00;22.85;;;;;;;10.40;73.23;101129.00;4992245;28;20038;-42
2022/12/21 08:46:06;;;;;;;54.20;21.90;;;;;;;10.47;72.82;101123.03;4991594;28;20029;-44
2022/12/21 08:48:32;;;;;;;58.70;22.35;;;;;;;10.52;73.40;101117.91;4990721;28;20041;-41
2022/12/21 08:50:58;;;;;;;52.53;21.88;;;;;;;10.61;72.92;101098.94;4990581;28;20403;-41
2022/12/21 08:53:24;;;;;;;55.95;21.05;;;;;;;10.62;73.20;101104.16;4989824;28;20026;-40
2022/12/21 08:55:50;;;;;;;51.08;20.40;;;;;;;10.72;73.24;101113.03;4990815;28;20034;-40
2022/12/21 08:58:16;;;;;;;55.83;20.27;;;;;;;10.76;73.13;101112.22;4990824;28;20030;-44
2022/12/21 09:00:42;;;;;;;55.55;20.25;;;;;;;10.70;73.17;101115.59;4991197;28;20410;-40
2022/12/21 09:03:08;;;;;;;42.55;18.15;;;;;;;10.62;73.22;101114.59;4990985;28;20033;-45
2022/12/21 09:05:34;;;;;;;46.40;18.40;;;;;;;10.73;73.04;101122.63;4990722;28;20450;-43
2022/12/21 09:08:01;;;;;;;44.95;17.30;;;;;;;10.70;73.01;101115.59;4991358;28;20026;-42
2022/12/21 09:10:27;;;;;;;39.50;16.67;;;;;;;10.74;72.88;101109.56;4991425;28;20377;-40
2022/12/21 09:12:54;;;;;;;40.67;16.63;;;;;;;10.73;73.17;101120.00;4993060;28;20026;-45
2022/12/21 09:15:20;;;;;;;40.83;16.08;;;;;;;10.82;73.28;101114.94;4993513;28;20056;-41
2022/12/21 09:17:46;;;;;;;39.75;15.13;;;;;;;10.79;73.15;101107.94;4992164;28;20101;-40
2022/12/21 09:20:11;;;;;;;40.08;14.68;;;;;;;10.50;73.54;101110.03;4990626;28;20125;-40
2022/12/21 09:22:36;;;;;;;36.60;14.13;;;;;;;10.64;73.27;101107.69;4990219;28;20391;-42
2022/12/21 09:25:02;;;;;;;31.23;13.70;;;;;;;10.71;72.93;101104.31;4990751;28;20065;-39
2022/12/21 09:27:27;;;;;;;30.02;12.90;;;;;;;10.61;72.70;101106.75;4990916;28;20036;-42
2022/12/21 09:29:52;;;;;;;32.40;12.68;;;;;;;10.64;72.91;101105.06;4991905;28;20037;-39
2022/12/21 09:32:18;;;;;;;27.15;11.98;;;;;;;10.68;73.09;101100.78;4991107;28;20258;-41
2022/12/21 09:34:43;;;;;;;27.45;11.00;;;;;;;10.30;73.65;101106.22;4992181;28;20028;-41
2022/12/21 09:37:08;;;;;;;29.70;10.90;;;;;;;10.61;73.52;101101.56;4993020;28;20022;-41
2022/12/21 09:39:34;;;;;;;30.75;10.68;;;;;;;10.63;73.47;101102.44;4993336;28;20018;-41
2022/12/21 09:42:14;;;;;;;26.42;10.88;;;;;;;10.53;73.71;101106.63;4993220;28;20050;-41
2022/12/21 09:44:46;;;;;;;25.75;10.88;;;;;;;10.61;73.60;101102.44;4992841;28;20030;-47
2022/12/21 09:47:34;;;;;;;23.98;10.43;;;;;;;10.64;73.55;101106.81;4990495;28;20081;-43
2022/12/21 09:50:02;;;;;;;27.35;10.25;;;;;;;10.51;73.75;101110.94;4990509;28;20134;-40
2022/12/21 09:52:40;;;;;;;24.70;10.38;;;;;;;10.78;73.85;101100.09;4991172;28;20030;-43
2022/12/21 09:55:11;;;;;;;24.73;10.75;;;;;;;10.66;74.04;101105.09;4993877;28;20041;-42
2022/12/21 09:57:36;;;;;;;29.88;11.60;;;;;;;10.71;74.74;101106.06;4994519;28;20414;-46
2022/12/21 10:00:14;;;;;;;26.23;11.32;;;;;;;10.93;73.61;101106.41;4992803;28;20030;-42
2022/12/21 10:03:05;;;;;;;28.52;11.70;;;;;;;11.00;73.96;101112.59;4994567;28;20054;-41
2022/12/21 10:05:53;;;;;;;24.40;11.95;;;;;;;10.98;73.72;101106.47;4996337;28;20105;-40
2022/12/21 10:08:40;;;;;;;28.38;13.13;;;;;;;11.25;73.03;101114.72;4996976;28;20313;-42
2022/12/21 10:11:14;;;;;;;33.53;13.80;;;;;;;11.09;73.51;101096.22;4995840;28;20093;-44
2022/12/21 10:14:03;;;;;;;38.28;16.20;;;;;;;10.82;74.08;101105.38;4996521;28;20495;-43
2022/12/21 10:16:40;;;;;;;33.20;15.50;;;;;;;11.03;73.38;101109.19;4995137;28;20022;-41
2022/12/21 10:19:30;;;;;;;37.83;17.42;;;;;;;10.99;73.63;101116.94;4994699;28;20060;-43
2022/12/21 10:22:23;;;;;;;38.95;16.67;;;;;;;10.73;73.24;101120.00;4994926;28;20030;-44
2022/12/21 10:24:52;;;;;;;34.13;17.30;;;;;;;11.07;73.00;101127.50;4994599;28;20026;-45
2022/12/21 10:27:25;;;;;;;38.13;17.25;;;;;;;11.32;73.17;101121.78;4996235;28;20109;-40
2022/12/21 10:29:56;;;;;;;37.85;18.02;;;;;;;11.03;73.08;101130.06;4996797;28;20078;-42
2022/12/21 10:32:24;;;;;;;40.65;18.50;;;;;;;10.72;73.70;101132.16;4995961;28;20033;-41
2022/12/21 10:34:54;;;;;;;35.17;17.65;;;;;;;11.15;73.26;101125.03;4996135;28;20105;-42
2022/12/21 10:37:21;;;;;;;38.25;18.50;;;;;;;10.96;73.65;101132.56;4996229;28;20558;-41
2022/12/21 10:39:53;;;;;;;36.30;17.70;;;;;;;11.14;72.85;101125.88;4995492;28;20030;-43
2022/12/21 10:42:26;;;;;;;35.15;17.27;;;;;;;11.51;71.79;101116.81;4995035;28;20057;-40
2022/12/21 10:44:52;;;;;;;37.27;17.10;;;;;;;11.77;71.29;101128.53;4995191;28;20031;-41
2022/12/21 10:47:22;;;;;;;35.30;17.08;;;;;;;11.27;71.56;101126.06;4995924;28;20289;-42
2022/12/21 10:50:32;;;;;;;36.83;17.65;;;;;;;11.73;71.61;101121.47;4995620;28;20033;-45
2022/12/21 10:53:15;;;;;;;37.35;16.63;;;;;;;11.34;71.82;101116.59;4973026;28;20392;-40
2022/12/21 10:55:42;;;;;;;36.15;17.42;;;;;;;11.98;70.55;101117.44;4971286;28;20026;-39
2022/12/21 10:58:16;;;;;;;39.88;16.67;;;;;;;11.54;71.10;101117.72;4984829;28;20034;-43
2022/12/21 11:00:54;;;;;;;32.45;16.52;;;;;;;11.71;70.84;101107.53;4992034;28;20030;-42
2022/12/21 11:03:50;;;;;;;35.47;16.45;;;;;;;11.59;70.41;101107.34;4992347;28;20081;-43
2022/12/21 11:06:19;;;;;;;32.53;16.48;;;;;;;11.70;70.66;101108.38;4992319;28;20149;-44
2022/12/21 11:08:47;;;;;;;37.35;17.80;;;;;;;11.73;70.55;101111.94;4992224;28;20404;-43
2022/12/21 11:11:37;;;;;;;38.90;17.05;;;;;;;11.47;71.47;101109.78;4991827;28;20422;-42
2022/12/21 11:14:12;;;;;;;43.80;17.70;;;;;;;11.74;70.45;101105.84;4991818;28;20399;-42
2022/12/21 11:16:38;;;;;;;40.00;18.33;;;;;;;11.74;70.13;101105.84;4992466;28;20018;-40
2022/12/21 11:19:03;;;;;;;42.05;18.30;;;;;;;11.51;71.03;101098.56;4992090;28;20038;-38
2022/12/21 11:21:33;;;;;;;41.60;17.67;;;;;;;11.31;70.75;101095.66;4991645;28;20030;-45
2022/12/21 11:24:03;;;;;;;41.13;18.02;;;;;;;11.40;71.21;101098.41;4991943;28;20062;-45
2022/12/21 11:26:32;;;;;;;37.28;17.02;;;;;;;11.74;70.39;101099.75;4991622;28;20510;-41
2022/12/21 11:28:59;;;;;;;37.80;17.20;;;;;;;11.79;70.15;101092.84;4992040;28;20105;-47
2022/12/21 11:31:29;;;;;;;39.03;17.48;;;;;;;11.71;70.43;101092.69;4991873;28;20026;-45
2022/12/21 11:33:54;;;;;;;36.50;16.40;;;;;;;11.41;71.19;101084.47;4992469;28;20030;-42
2022/12/21 11:36:19;;;;;;;35.05;16.10;;;;;;;11.64;70.08;101088.28;4991768;28;20370;-45